createdAt,value
2022-10-14T00:00:10.352Z,18.02
2022-10-14T00:02:51.415Z,15.00
2022-10-14T00:05:31.244Z,17.08
2022-10-14T00:08:10.700Z,16.02
2022-10-14T00:10:51.266Z,16.58
2022-10-14T00:13:31.067Z,15.40
2022-10-14T00:16:20.768Z,16.13
2022-10-14T00:19:01.343Z,15.20
2022-10-14T00:21:43.734Z,15.95
2022-10-14T00:24:27.960Z,15.30
2022-10-14T00:27:06.993Z,15.55
2022-10-14T00:29:47.507Z,14.73
2022-10-14T00:32:26.690Z,14.05
2022-10-14T00:35:07.478Z,13.27
2022-10-14T00:37:47.864Z,14.13
2022-10-14T00:40:27.808Z,10.45
2022-10-14T00:43:14.008Z,18.35
2022-10-14T00:45:52.661Z,15.13
2022-10-14T00:48:32.025Z,15.23
2022-10-14T00:51:13.778Z,12.55
2022-10-14T00:53:53.527Z,15.07
2022-10-14T00:56:34.981Z,17.58
2022-10-14T00:59:16.944Z,14.32
2022-10-14T01:01:57.512Z,16.83
2022-10-14T01:04:41.297Z,12.43
2022-10-14T01:07:48.023Z,14.60
2022-10-14T01:10:36.941Z,13.88
2022-10-14T01:13:26.588Z,14.00
2022-10-14T01:16:25.867Z,12.98
2022-10-14T01:19:42.786Z,15.25
2022-10-14T01:22:29.729Z,14.45
2022-10-14T01:25:14.665Z,13.25
2022-10-14T01:28:00.215Z,15.27
2022-10-14T01:30:46.247Z,12.63
2022-10-14T01:33:32.794Z,12.60
2022-10-14T01:36:42.495Z,13.20
2022-10-14T01:39:30.780Z,11.27
2022-10-14T01:42:25.425Z,14.50
2022-10-14T01:45:12.034Z,13.43
2022-10-14T01:48:05.337Z,13.32
2022-10-14T01:50:48.047Z,13.57
2022-10-14T01:53:35.256Z,13.15
2022-10-14T01:56:17.207Z,14.68
2022-10-14T01:58:59.861Z,14.00
2022-10-14T02:01:40.258Z,12.65
2022-10-14T02:04:21.820Z,12.60
2022-10-14T02:07:19.887Z,14.15
2022-10-14T02:10:10.847Z,12.65
2022-10-14T02:13:16.131Z,12.70
2022-10-14T02:16:02.719Z,15.95
2022-10-14T02:19:01.423Z,11.85
2022-10-14T02:21:44.436Z,12.65
2022-10-14T02:24:38.315Z,12.27
2022-10-14T02:27:20.188Z,16.35
2022-10-14T02:30:01.688Z,13.27
2022-10-14T02:32:44.026Z,14.23
2022-10-14T02:35:25.849Z,12.73
2022-10-14T02:38:09.057Z,15.68
2022-10-14T02:40:50.765Z,18.17
2022-10-14T02:43:31.136Z,13.10
2022-10-14T02:46:10.969Z,15.35
2022-10-14T02:48:54.335Z,16.05
2022-10-14T02:51:33.817Z,16.30
2022-10-14T02:54:15.725Z,12.02
2022-10-14T02:56:55.373Z,16.88
2022-10-14T02:59:39.636Z,18.65
2022-10-14T03:02:20.204Z,15.82
2022-10-14T03:05:00.816Z,15.45
2022-10-14T03:07:55.805Z,19.15
2022-10-14T03:10:37.010Z,15.45
2022-10-14T03:13:17.100Z,17.23
2022-10-14T03:16:00.028Z,18.10
2022-10-14T03:18:41.823Z,23.88
2022-10-14T03:21:32.518Z,18.58
2022-10-14T03:24:12.231Z,16.13
2022-10-14T03:26:52.159Z,20.30
2022-10-14T03:29:38.165Z,18.77
2022-10-14T03:32:29.414Z,24.88
2022-10-14T03:35:41.615Z,19.88
2022-10-14T03:38:26.312Z,22.27
2022-10-14T03:41:07.096Z,18.85
2022-10-14T03:43:47.142Z,20.45
2022-10-14T03:46:26.719Z,18.65
2022-10-14T03:49:06.830Z,22.75
2022-10-14T04:00:36.065Z,20.10
2022-10-14T04:07:46.481Z,24.35
2022-10-14T04:16:17.521Z,24.63
2022-10-14T04:30:45.605Z,24.95
2022-10-14T04:32:53.217Z,26.48
2022-10-14T04:35:41.488Z,27.20
2022-10-14T04:38:29.207Z,31.35
2022-10-14T04:41:14.596Z,30.17
2022-10-14T04:44:00.989Z,27.30
2022-10-14T04:47:10.521Z,26.23
2022-10-14T04:49:50.939Z,24.33
2022-10-14T04:52:33.874Z,25.52
2022-10-14T04:55:19.991Z,23.45
2022-10-14T04:58:00.030Z,24.10
2022-10-14T05:00:48.618Z,25.17
2022-10-14T05:03:40.689Z,26.30
2022-10-14T05:06:20.022Z,22.85
2022-10-14T05:09:01.631Z,24.05
2022-10-14T05:11:44.999Z,22.67
2022-10-14T05:14:27.647Z,24.40
2022-10-14T05:17:23.911Z,20.15
2022-10-14T05:20:04.247Z,21.52
2022-10-14T05:22:46.104Z,24.65
2022-10-14T05:25:26.087Z,21.25
2022-10-14T05:28:05.861Z,19.63
2022-10-14T05:30:45.882Z,22.45
2022-10-14T05:33:25.514Z,19.98
2022-10-14T05:36:05.548Z,17.98
2022-10-14T05:38:45.579Z,21.40
2022-10-14T05:41:25.716Z,19.95
2022-10-14T05:44:11.749Z,20.65
2022-10-14T05:46:52.701Z,20.42
2022-10-14T05:49:32.473Z,18.45
2022-10-14T05:52:15.625Z,20.40
2022-10-14T05:54:56.852Z,17.80
2022-10-14T05:57:39.233Z,18.33
2022-10-14T06:00:24.717Z,23.17
2022-10-14T06:03:13.068Z,20.20
2022-10-14T06:05:53.846Z,17.75
2022-10-14T06:08:33.592Z,15.18
2022-10-14T06:11:13.512Z,17.17
2022-10-14T06:13:53.716Z,25.83
2022-10-14T06:16:33.226Z,16.80
2022-10-14T06:19:16.167Z,17.40
2022-10-14T06:21:56.932Z,18.67
2022-10-14T06:24:37.348Z,17.80
2022-10-14T06:27:17.178Z,18.95
2022-10-14T06:29:57.062Z,14.15
2022-10-14T06:32:40.412Z,22.17
2022-10-14T06:35:21.525Z,13.95
2022-10-14T06:38:01.271Z,15.35
2022-10-14T06:40:41.235Z,17.73
2022-10-14T06:43:22.150Z,13.68
2022-10-14T06:46:04.770Z,19.10
2022-10-14T06:48:50.036Z,15.30
2022-10-14T06:51:29.167Z,15.38
2022-10-14T06:54:08.048Z,15.55
2022-10-14T06:56:48.030Z,16.80
2022-10-14T06:59:30.603Z,14.32
2022-10-14T07:02:11.734Z,15.95
2022-10-14T07:04:52.410Z,20.73
2022-10-14T07:07:32.187Z,16.58
2022-10-14T07:10:12.007Z,13.27
2022-10-14T07:12:56.237Z,20.90
2022-10-14T07:15:38.868Z,15.57
2022-10-14T07:18:18.626Z,17.08
2022-10-14T07:21:02.252Z,12.63
2022-10-14T07:23:41.255Z,19.73
2022-10-14T07:26:20.528Z,14.80
2022-10-14T07:29:00.415Z,16.52
2022-10-14T07:31:40.343Z,15.60
2022-10-14T07:34:20.140Z,15.63
2022-10-14T07:37:00.731Z,14.55
2022-10-14T07:39:41.324Z,20.30
2022-10-14T07:45:06.732Z,14.38
2022-10-14T07:47:49.346Z,13.43
2022-10-14T07:50:28.557Z,14.45
2022-10-14T07:53:08.567Z,12.82
2022-10-14T07:55:52.182Z,16.85
2022-10-14T07:58:31.707Z,14.27
2022-10-14T08:01:11.298Z,15.80
2022-10-14T08:03:51.830Z,17.98
2022-10-14T08:06:32.360Z,13.77
2022-10-14T08:09:12.911Z,9.82
2022-10-14T08:11:52.468Z,10.20
2022-10-14T08:14:31.870Z,10.45
2022-10-14T08:17:11.815Z,18.60
2022-10-14T08:19:51.457Z,12.02
2022-10-14T08:22:31.256Z,11.85
2022-10-14T08:25:11.367Z,11.10
2022-10-14T08:27:51.317Z,14.23
2022-10-14T08:30:30.864Z,8.50
2022-10-14T08:33:13.208Z,10.73
2022-10-14T08:35:54.247Z,12.23
2022-10-14T08:38:33.849Z,10.70
2022-10-14T08:41:23.210Z,8.65
2022-10-14T08:44:25.822Z,7.43
2022-10-14T08:47:10.484Z,9.77
2022-10-14T08:50:03.071Z,10.32
2022-10-14T08:52:50.566Z,7.63
2022-10-14T08:55:44.958Z,6.00
2022-10-14T08:58:52.252Z,9.48
2022-10-14T09:01:36.229Z,11.00
2022-10-14T09:04:16.962Z,10.48
2022-10-14T09:07:16.213Z,7.57
2022-10-14T09:10:00.378Z,5.50
2022-10-14T09:12:40.450Z,8.35
2022-10-14T09:15:27.509Z,9.13
2022-10-14T09:18:23.278Z,8.57
2022-10-14T09:21:04.348Z,5.07
2022-10-14T09:23:44.893Z,6.75
2022-10-14T09:26:48.649Z,10.13
2022-10-14T09:29:28.603Z,5.03
2022-10-14T09:32:31.560Z,6.72
2022-10-14T09:35:30.522Z,8.18
2022-10-14T09:38:13.572Z,7.50
2022-10-14T09:40:58.191Z,5.97
2022-10-14T09:43:58.949Z,6.38
2022-10-14T09:46:38.403Z,4.00
2022-10-14T09:49:25.412Z,6.25
2022-10-14T09:52:04.126Z,5.43
2022-10-14T09:54:43.803Z,5.43
2022-10-14T09:57:25.023Z,11.77
2022-10-14T10:00:06.779Z,7.88
2022-10-14T10:02:48.322Z,5.60
2022-10-14T10:05:33.932Z,7.07
2022-10-14T10:08:26.599Z,9.10
2022-10-14T10:11:13.745Z,6.32
2022-10-14T10:13:52.141Z,4.78
2022-10-14T10:16:33.477Z,6.65
2022-10-14T10:19:37.080Z,4.57
2022-10-14T10:25:03.440Z,5.15
2022-10-14T10:27:47.907Z,5.65
2022-10-14T10:30:43.382Z,5.70
2022-10-14T10:33:36.906Z,5.90
2022-10-14T10:39:26.147Z,3.60
2022-10-14T10:42:23.890Z,5.55
2022-10-14T10:45:26.835Z,7.38
2022-10-14T10:48:38.239Z,5.28
2022-10-14T10:51:30.854Z,6.85
2022-10-14T10:54:35.723Z,7.80
2022-10-14T10:57:22.923Z,6.75
2022-10-14T11:00:07.897Z,6.35
2022-10-14T11:03:08.826Z,7.95
2022-10-14T11:05:50.295Z,6.82
2022-10-14T11:09:16.362Z,7.45
2022-10-14T11:12:15.438Z,11.60
2022-10-14T11:15:13.299Z,8.73
2022-10-14T11:18:14.589Z,7.03
2022-10-14T11:21:01.046Z,12.35
2022-10-14T11:23:49.136Z,9.32
2022-10-14T11:26:38.094Z,8.60
2022-10-14T11:29:46.108Z,12.30
2022-10-14T11:32:43.000Z,5.85
2022-10-14T11:38:31.089Z,8.63
2022-10-14T11:41:33.703Z,8.52
2022-10-14T11:44:27.271Z,9.50
2022-10-14T11:47:15.821Z,7.18
2022-10-14T11:50:16.577Z,9.25
2022-10-14T11:53:24.956Z,11.27
2022-10-14T11:56:41.308Z,10.73
2022-10-14T11:59:37.995Z,12.40
2022-10-14T12:02:39.427Z,9.30
2022-10-14T12:05:47.304Z,11.38
2022-10-14T12:08:33.158Z,9.27
2022-10-14T12:11:34.216Z,13.15
2022-10-14T12:14:35.589Z,13.00
2022-10-14T12:17:26.132Z,10.68
2022-10-14T12:20:31.950Z,9.70
2022-10-14T12:23:14.551Z,6.88
2022-10-14T12:26:03.614Z,5.72
2022-10-14T12:28:45.148Z,6.82
2022-10-14T12:31:35.386Z,6.70
2022-10-14T12:34:17.385Z,7.10
2022-10-14T12:36:56.955Z,6.45
2022-10-14T12:39:41.803Z,4.85
2022-10-14T12:42:21.603Z,5.13
2022-10-14T12:45:17.522Z,3.53
2022-10-14T12:48:14.185Z,5.05
2022-10-14T12:51:11.639Z,5.97
2022-10-14T12:54:04.848Z,5.10
2022-10-14T12:57:28.778Z,9.95
2022-10-14T13:00:22.889Z,3.63
2022-10-14T13:03:04.426Z,4.35
2022-10-14T13:05:46.076Z,6.15
2022-10-14T13:08:28.351Z,3.25
2022-10-14T13:11:28.314Z,4.28
2022-10-14T13:14:29.856Z,4.22
2022-10-14T13:17:30.508Z,5.57
2022-10-14T13:20:34.357Z,5.47
2022-10-14T13:23:40.388Z,4.50
2022-10-14T13:26:38.284Z,4.80
2022-10-14T13:29:30.312Z,4.97
2022-10-14T13:32:31.152Z,5.22
2022-10-14T13:35:52.838Z,6.28
2022-10-14T13:38:33.648Z,5.45
2022-10-14T13:41:28.319Z,4.72
2022-10-14T13:44:27.494Z,4.85
2022-10-14T13:47:13.416Z,4.63
2022-10-14T13:49:54.079Z,3.75
2022-10-14T13:52:34.689Z,6.65
2022-10-14T13:55:16.506Z,6.18
2022-10-14T13:58:18.630Z,6.18
2022-10-14T14:01:04.360Z,5.85
2022-10-14T14:03:46.158Z,4.47
2022-10-14T14:06:35.835Z,5.72
2022-10-14T14:09:29.105Z,7.15
2022-10-14T14:12:12.239Z,5.13
2022-10-14T14:14:52.436Z,4.50
2022-10-14T14:17:34.823Z,4.00
2022-10-14T14:20:20.234Z,4.90
2022-10-14T14:23:04.052Z,5.40
2022-10-14T14:26:07.458Z,5.45
2022-10-14T14:28:50.017Z,6.68
2022-10-14T14:32:01.491Z,4.90
2022-10-14T14:34:36.149Z,5.97
2022-10-14T14:37:55.614Z,5.60
2022-10-14T14:40:34.031Z,4.93
2022-10-14T14:43:13.996Z,3.40
2022-10-14T14:45:53.966Z,3.30
2022-10-14T14:48:34.896Z,3.13
2022-10-14T14:51:15.241Z,4.68
2022-10-14T14:53:55.448Z,3.97
2022-10-14T14:56:39.982Z,3.75
2022-10-14T14:59:32.200Z,3.05
2022-10-14T15:02:21.118Z,3.45
2022-10-14T15:05:09.623Z,4.88
2022-10-14T15:07:49.881Z,3.30
2022-10-14T15:10:31.594Z,2.55
2022-10-14T15:13:45.377Z,6.55
2022-10-14T15:16:52.950Z,3.80
2022-10-14T15:19:38.172Z,3.25
2022-10-14T15:22:24.060Z,4.00
2022-10-14T15:25:13.017Z,7.13
2022-10-14T15:27:56.756Z,4.65
2022-10-14T15:30:40.209Z,8.00
2022-10-14T15:33:23.268Z,5.57
2022-10-14T15:36:03.489Z,4.57
2022-10-14T15:38:43.215Z,11.45
2022-10-14T15:41:23.189Z,6.07
2022-10-14T15:44:02.828Z,4.30
2022-10-14T15:47:05.528Z,3.45
2022-10-14T15:49:46.607Z,4.82
2022-10-14T15:52:32.432Z,4.35
2022-10-14T15:56:07.908Z,6.60
2022-10-14T16:00:04.530Z,3.95
2022-10-14T16:03:08.507Z,4.53
2022-10-14T16:05:52.789Z,5.32
2022-10-14T16:55:59.916Z,4.97
2022-10-14T16:58:39.862Z,7.40
2022-10-14T17:01:26.353Z,7.18
2022-10-14T17:04:05.503Z,5.75
2022-10-14T17:06:46.452Z,7.60
2022-10-14T17:09:28.811Z,7.60
2022-10-14T17:12:27.000Z,6.55
2022-10-14T17:15:10.718Z,5.57
2022-10-14T17:17:53.548Z,5.80
2022-10-14T17:20:34.168Z,5.68
2022-10-14T17:23:13.989Z,9.25
2022-10-14T17:25:55.494Z,9.27
2022-10-14T17:28:50.024Z,7.35
2022-10-14T17:31:34.334Z,5.65
2022-10-14T17:34:14.867Z,6.47
2022-10-14T17:36:55.293Z,6.03
2022-10-14T17:39:36.141Z,8.23
2022-10-14T17:42:16.121Z,7.07
2022-10-14T17:44:57.204Z,7.75
2022-10-14T17:47:45.226Z,6.55
2022-10-14T17:50:30.101Z,6.97
2022-10-14T17:53:26.436Z,10.45
2022-10-14T17:56:09.021Z,12.23
2022-10-14T17:58:52.252Z,6.47
2022-10-14T18:01:37.936Z,11.73
2022-10-14T18:04:33.729Z,9.88
2022-10-14T18:07:12.051Z,5.90
2022-10-14T18:09:59.063Z,7.78
2022-10-14T18:12:39.207Z,11.23
2022-10-14T18:15:20.304Z,9.50
2022-10-14T18:18:00.189Z,7.90
2022-10-14T18:20:39.565Z,8.90
2022-10-14T18:23:20.260Z,6.57
2022-10-14T18:26:10.979Z,9.80
2022-10-14T18:28:55.225Z,8.68
2022-10-14T18:31:35.072Z,6.90
2022-10-14T18:34:14.270Z,7.38
2022-10-14T18:36:54.122Z,6.10
2022-10-14T18:39:33.102Z,7.25
2022-10-14T18:42:17.127Z,8.50
2022-10-14T18:44:59.923Z,8.77
2022-10-14T18:47:39.886Z,9.55
2022-10-14T18:50:20.151Z,13.15
2022-10-14T18:52:57.930Z,12.45
2022-10-14T18:55:40.670Z,9.93
2022-10-14T18:58:20.808Z,10.10
2022-10-14T19:01:01.300Z,13.50
2022-10-14T19:03:43.059Z,8.38
2022-10-14T19:06:25.831Z,8.57
2022-10-14T19:09:06.561Z,5.95
2022-10-14T19:11:46.704Z,8.25
2022-10-14T19:14:31.844Z,6.20
2022-10-14T19:19:59.968Z,8.15
2022-10-14T19:22:44.867Z,10.68
2022-10-14T19:25:24.599Z,8.75
2022-10-14T19:28:04.528Z,8.68
2022-10-14T19:30:44.291Z,7.95
2022-10-14T19:33:24.048Z,8.40
2022-10-14T19:36:04.388Z,8.60
2022-10-14T19:38:52.023Z,9.90
2022-10-14T19:41:34.319Z,12.73
2022-10-14T19:44:16.019Z,10.68
2022-10-14T19:46:56.220Z,10.00
2022-10-14T19:49:36.211Z,8.30
2022-10-14T19:52:15.555Z,9.00
2022-10-14T19:54:55.491Z,11.40
2022-10-14T19:57:35.240Z,10.27
2022-10-14T20:00:15.476Z,11.45
2022-10-14T20:02:53.689Z,8.63
2022-10-14T20:05:33.155Z,10.10
2022-10-14T20:08:13.029Z,6.82
2022-10-14T20:10:53.078Z,7.13
2022-10-14T20:13:32.636Z,7.38
2022-10-14T20:16:13.418Z,7.90
2022-10-14T20:18:54.583Z,6.43
2022-10-14T20:21:33.787Z,5.63
2022-10-14T20:24:13.620Z,5.10
2022-10-14T20:26:53.430Z,5.80
2022-10-14T20:29:35.810Z,5.93
2022-10-14T20:32:16.292Z,7.15
2022-10-14T20:34:56.273Z,8.25
2022-10-14T20:37:35.767Z,5.32
2022-10-14T20:40:16.250Z,6.40
2022-10-14T20:42:56.363Z,6.00
2022-10-14T20:45:37.007Z,7.07
2022-10-14T20:48:16.737Z,6.43
2022-10-14T20:50:56.618Z,4.85
2022-10-14T20:53:36.502Z,5.53
2022-10-14T20:56:16.611Z,6.70
2022-10-14T20:58:57.621Z,6.32
2022-10-14T21:01:37.743Z,5.60
2022-10-14T21:04:17.241Z,6.32
2022-10-14T21:07:02.062Z,8.55
2022-10-14T21:09:41.870Z,5.93
2022-10-14T21:12:21.902Z,8.30
2022-10-14T21:15:01.393Z,9.05
2022-10-14T21:17:48.687Z,9.40
2022-10-14T21:20:29.715Z,11.15
2022-10-14T21:23:08.792Z,12.50
2022-10-14T21:25:56.005Z,9.02
2022-10-14T21:28:37.159Z,8.88
2022-10-14T21:31:19.188Z,12.38
2022-10-14T21:34:05.323Z,14.93
2022-10-14T21:36:45.548Z,9.07
2022-10-14T21:39:24.741Z,9.80
2022-10-14T21:42:04.123Z,7.00
2022-10-14T21:44:42.388Z,8.60
2022-10-14T21:47:27.141Z,11.80
2022-10-14T21:50:05.472Z,10.98
2022-10-14T21:52:43.373Z,8.95
2022-10-14T21:55:21.464Z,6.88
2022-10-14T21:57:59.778Z,6.43
2022-10-14T22:00:39.615Z,8.93
2022-10-14T22:03:17.869Z,9.23
2022-10-14T22:08:50.808Z,8.55
2022-10-14T22:11:33.232Z,9.57
2022-10-14T22:14:16.963Z,10.50
2022-10-14T22:16:56.216Z,6.70
2022-10-14T22:19:34.417Z,10.85
2022-10-14T22:22:12.589Z,10.95
2022-10-14T22:24:50.812Z,10.13
2022-10-14T22:27:42.440Z,9.20
2022-10-14T22:30:24.496Z,7.45
2022-10-14T22:33:03.817Z,7.50
2022-10-14T22:35:42.002Z,6.78
2022-10-14T22:38:20.524Z,7.25
2022-10-14T22:41:01.094Z,7.30
2022-10-14T22:43:40.170Z,9.45
2022-10-14T22:46:20.385Z,9.02
2022-10-14T22:49:01.672Z,10.07
2022-10-14T22:51:41.184Z,12.68
2022-10-14T22:54:19.100Z,6.80
2022-10-14T22:56:57.844Z,13.57
2022-10-14T22:59:37.099Z,6.45
2022-10-14T23:02:15.330Z,7.28
2022-10-14T23:04:53.564Z,8.63
2022-10-14T23:07:32.439Z,7.03
2022-10-14T23:10:11.600Z,7.07
2022-10-14T23:12:49.844Z,7.55
2022-10-14T23:15:28.230Z,8.50
2022-10-14T23:18:06.279Z,10.93
2022-10-14T23:20:44.932Z,7.85
2022-10-14T23:23:24.436Z,11.68
2022-10-14T23:26:02.668Z,12.23
2022-10-14T23:28:41.690Z,11.23
2022-10-14T23:31:24.063Z,14.75
2022-10-14T23:34:05.116Z,13.15
2022-10-14T23:36:43.602Z,11.75
2022-10-14T23:39:21.662Z,13.82
2022-10-14T23:41:59.893Z,12.70
2022-10-14T23:44:38.128Z,11.75
2022-10-14T23:47:16.840Z,13.70
2022-10-14T23:49:56.224Z,15.32
2022-10-14T23:52:34.395Z,13.20
2022-10-14T23:55:13.414Z,12.65
2022-10-14T23:57:52.867Z,13.88
